createdAt,value
2023-04-18T00:01:06.237Z,7.9
2023-04-18T00:02:19.323Z,7.8
2023-04-18T00:03:32.522Z,7.8
2023-04-18T00:04:45.442Z,7.8
2023-04-18T00:05:58.238Z,7.8
2023-04-18T00:07:11.214Z,7.8
2023-04-18T00:08:24.210Z,7.6
2023-04-18T00:09:37.490Z,7.6
2023-04-18T00:10:50.237Z,7.6
2023-04-18T00:12:03.255Z,7.6
2023-04-18T00:13:16.294Z,7.6
2023-04-18T00:14:29.315Z,7.6
2023-04-18T00:15:42.260Z,7.6
2023-04-18T00:16:55.317Z,7.5
2023-04-18T00:18:08.316Z,7.6
2023-04-18T00:19:21.370Z,7.6
2023-04-18T00:20:34.373Z,7.6
2023-04-18T00:21:47.273Z,7.6
2023-04-18T00:23:00.302Z,7.6
2023-04-18T00:24:13.544Z,7.6
2023-04-18T00:25:26.258Z,7.6
2023-04-18T00:26:39.375Z,7.4
2023-04-18T00:27:52.254Z,7.4
2023-04-18T00:29:05.264Z,7.4
2023-04-18T00:30:18.264Z,7.4
2023-04-18T00:31:31.298Z,7.3
2023-04-18T00:32:44.318Z,7.2
2023-04-18T00:33:57.279Z,7.2
2023-04-18T00:35:10.293Z,7.2
2023-04-18T00:36:23.266Z,7.2
2023-04-18T00:37:36.247Z,7.3
2023-04-18T00:38:49.421Z,7.3
2023-04-18T00:40:02.439Z,7.2
2023-04-18T00:41:15.288Z,7.2
2023-04-18T00:42:28.294Z,7.2
2023-04-18T00:43:41.282Z,7.3
2023-04-18T00:44:54.285Z,7.2
2023-04-18T00:46:07.316Z,7.2
2023-04-18T00:47:20.336Z,7.2
2023-04-18T00:48:33.270Z,7.2
2023-04-18T00:49:46.434Z,7.2
2023-04-18T00:50:59.268Z,7
2023-04-18T00:52:12.270Z,7
2023-04-18T00:53:25.258Z,7
2023-04-18T00:54:38.263Z,7
2023-04-18T00:55:51.292Z,7
2023-04-18T00:57:04.338Z,7
2023-04-18T00:58:17.275Z,7
2023-04-18T00:59:30.262Z,7
2023-04-18T01:00:43.425Z,7
2023-04-18T01:01:56.373Z,7
2023-04-18T01:03:09.337Z,6.9
2023-04-18T01:04:22.426Z,6.8
2023-04-18T01:05:35.309Z,6.9
2023-04-18T01:06:48.299Z,6.8
2023-04-18T01:08:01.460Z,6.8
2023-04-18T01:09:14.318Z,6.8
2023-04-18T01:10:27.365Z,6.9
2023-04-18T01:11:40.294Z,6.9
2023-04-18T01:12:53.272Z,6.9
2023-04-18T01:14:06.285Z,6.9
2023-04-18T01:15:19.312Z,6.8
2023-04-18T01:16:32.286Z,6.8
2023-04-18T01:17:45.264Z,7
2023-04-18T01:18:58.471Z,6.9
2023-04-18T01:20:11.388Z,6.9
2023-04-18T01:21:24.403Z,7
2023-04-18T01:22:37.316Z,6.9
2023-04-18T01:23:50.325Z,6.8
2023-04-18T01:25:03.309Z,6.8
2023-04-18T01:26:16.334Z,6.8
2023-04-18T01:27:29.331Z,6.8
2023-04-18T01:28:42.350Z,6.8
2023-04-18T01:29:55.353Z,6.9
2023-04-18T01:31:08.408Z,6.9
2023-04-18T01:32:21.390Z,6.9
2023-04-18T01:33:34.428Z,6.9
2023-04-18T01:34:46.999Z,6.9
2023-04-18T01:36:00.302Z,6.9
2023-04-18T01:37:13.351Z,6.9
2023-04-18T01:38:26.282Z,6.9
2023-04-18T01:39:39.424Z,6.9
2023-04-18T01:40:52.292Z,6.9
2023-04-18T01:42:05.299Z,6.8
2023-04-18T01:43:18.287Z,6.8
2023-04-18T01:44:31.336Z,6.8
2023-04-18T01:45:44.308Z,6.8
2023-04-18T01:46:57.350Z,6.8
2023-04-18T01:48:10.446Z,6.8
2023-04-18T01:49:23.352Z,6.8
2023-04-18T01:50:36.365Z,6.8
2023-04-18T01:51:49.338Z,6.8
2023-04-18T01:53:02.295Z,6.8
2023-04-18T01:54:15.659Z,6.8
2023-04-18T01:55:28.358Z,6.8
2023-04-18T01:56:41.341Z,6.8
2023-04-18T01:57:54.333Z,6.8
2023-04-18T01:59:07.021Z,6.6
2023-04-18T02:00:20.348Z,6.6
2023-04-18T02:01:33.466Z,6.6
2023-04-18T02:02:46.547Z,6.6
2023-04-18T02:03:59.569Z,6.6
2023-04-18T02:05:12.515Z,6.4
2023-04-18T02:06:25.327Z,6.4
2023-04-18T02:07:38.341Z,6.5
2023-04-18T02:08:51.378Z,6.5
2023-04-18T02:10:04.385Z,6.5
2023-04-18T02:11:17.327Z,6.4
2023-04-18T02:12:30.314Z,6.5
2023-04-18T02:13:43.407Z,6.5
2023-04-18T02:14:56.329Z,6.5
2023-04-18T02:16:09.457Z,6.5
2023-04-18T02:17:22.365Z,6.5
2023-04-18T02:18:35.527Z,6.5
2023-04-18T02:19:48.352Z,6.3
2023-04-18T02:21:01.384Z,6.3
2023-04-18T02:22:14.500Z,6.3
2023-04-18T02:23:27.412Z,6.3
2023-04-18T02:24:40.404Z,6.3
2023-04-18T02:25:53.425Z,6.3
2023-04-18T02:27:06.458Z,6.3
2023-04-18T02:28:19.327Z,6.3
2023-04-18T02:29:32.383Z,6.3
2023-04-18T02:30:45.499Z,6.3
2023-04-18T02:31:58.338Z,6.2
2023-04-18T02:33:11.484Z,6.2
2023-04-18T02:34:24.351Z,6.2
2023-04-18T02:35:37.355Z,6.2
2023-04-18T02:36:50.441Z,6.2
2023-04-18T02:38:03.362Z,6.2
2023-04-18T02:39:16.479Z,6.2
2023-04-18T02:40:29.376Z,6.2
2023-04-18T02:41:42.385Z,6.1
2023-04-18T02:42:55.045Z,6.1
2023-04-18T02:44:08.439Z,6.1
2023-04-18T02:45:21.421Z,6.1
2023-04-18T02:46:34.374Z,6.1
2023-04-18T02:47:55.082Z,6.1
2023-04-18T02:49:00.482Z,6.1
2023-04-18T02:50:13.374Z,6.1
2023-04-18T02:51:26.353Z,6.1
2023-04-18T02:52:39.311Z,6.1
2023-04-18T02:53:52.386Z,5.9
2023-04-18T02:55:05.368Z,5.9
2023-04-18T02:56:18.340Z,5.9
2023-04-18T02:57:31.390Z,5.9
2023-04-18T02:58:44.457Z,5.9
2023-04-18T02:59:57.389Z,5.9
2023-04-18T03:01:10.083Z,5.9
2023-04-18T03:02:23.447Z,5.9
2023-04-18T03:03:36.437Z,5.9
2023-04-18T03:04:49.426Z,5.9
2023-04-18T03:06:02.373Z,5.9
2023-04-18T03:07:15.454Z,5.9
2023-04-18T03:08:28.459Z,5.9
2023-04-18T03:09:41.557Z,5.8
2023-04-18T03:10:56.130Z,5.8
2023-04-18T03:12:07.401Z,5.8
2023-04-18T03:13:20.349Z,5.8
2023-04-18T03:14:33.382Z,5.8
2023-04-18T03:15:46.398Z,5.8
2023-04-18T03:16:59.381Z,5.8
2023-04-18T03:18:12.386Z,5.8
2023-04-18T03:19:25.366Z,5.8
2023-04-18T03:20:38.396Z,5.9
2023-04-18T03:21:51.491Z,5.8
2023-04-18T03:23:04.405Z,5.8
2023-04-18T03:24:17.572Z,5.7
2023-04-18T03:25:30.419Z,5.9
2023-04-18T03:26:43.436Z,5.8
2023-04-18T03:27:56.359Z,5.7
2023-04-18T03:29:09.363Z,5.7
2023-04-18T03:30:22.376Z,5.7
2023-04-18T03:31:35.392Z,5.7
2023-04-18T03:32:48.417Z,5.7
2023-04-18T03:34:01.366Z,5.7
2023-04-18T03:35:14.527Z,5.7
2023-04-18T03:36:27.358Z,5.7
2023-04-18T03:37:40.432Z,5.7
2023-04-18T03:38:53.388Z,5.7
2023-04-18T03:40:06.446Z,5.7
2023-04-18T03:41:19.399Z,5.7
2023-04-18T03:42:32.388Z,5.7
2023-04-18T03:43:45.373Z,5.6
2023-04-18T03:44:58.385Z,5.6
2023-04-18T03:46:11.590Z,5.6
2023-04-18T03:47:24.449Z,5.6
2023-04-18T03:48:37.558Z,5.6
2023-04-18T03:49:50.393Z,5.6
2023-04-18T03:51:03.393Z,5.6
2023-04-18T03:52:16.480Z,5.6
2023-04-18T03:53:29.429Z,5.6
2023-04-18T03:54:42.402Z,5.6
2023-04-18T03:55:55.391Z,5.6
2023-04-18T03:57:08.448Z,5.6
2023-04-18T03:58:22.604Z,5.6
2023-04-18T03:59:34.738Z,5.6
2023-04-18T04:00:47.485Z,5.6
2023-04-18T04:02:00.497Z,5.6
2023-04-18T04:03:13.442Z,5.6
2023-04-18T04:04:26.517Z,5.6
2023-04-18T04:05:39.425Z,5.6
2023-04-18T04:06:52.444Z,5.6
2023-04-18T04:08:05.438Z,5.4
2023-04-18T04:09:18.361Z,5.4
2023-04-18T04:10:31.245Z,5.4
2023-04-18T04:11:44.404Z,5.4
2023-04-18T04:12:57.409Z,5.4
2023-04-18T04:14:10.446Z,5.4
2023-04-18T04:15:23.385Z,5.4
2023-04-18T04:16:36.458Z,5.4
2023-04-18T04:17:49.444Z,5.4
2023-04-18T04:19:02.406Z,5.4
2023-04-18T04:20:15.444Z,5.4
2023-04-18T04:21:28.416Z,5.4
2023-04-18T04:22:41.432Z,5.4
2023-04-18T04:23:54.543Z,5.5
2023-04-18T04:25:07.542Z,5.6
2023-04-18T04:26:20.453Z,5.6
2023-04-18T04:27:33.406Z,5.6
2023-04-18T04:28:46.549Z,5.6
2023-04-18T04:29:59.426Z,5.6
2023-04-18T04:31:12.483Z,5.6
2023-04-18T04:32:25.556Z,5.6
2023-04-18T04:33:38.453Z,5.6
2023-04-18T04:34:51.408Z,5.6
2023-04-18T04:36:04.422Z,5.6
2023-04-18T04:37:17.473Z,5.6
2023-04-18T04:38:30.424Z,5.6
2023-04-18T04:39:43.429Z,5.6
2023-04-18T04:40:56.419Z,5.6
2023-04-18T04:42:09.492Z,5.6
2023-04-18T04:43:22.394Z,5.6
2023-04-18T04:44:35.610Z,5.6
2023-04-18T04:45:48.629Z,5.6
2023-04-18T04:47:01.457Z,5.6
2023-04-18T04:48:14.410Z,5.6
2023-04-18T04:49:27.482Z,5.6
2023-04-18T04:50:40.549Z,5.7
2023-04-18T04:51:53.435Z,5.7
2023-04-18T04:53:06.448Z,5.7
2023-04-18T04:54:19.435Z,5.7
2023-04-18T04:55:32.632Z,5.7
2023-04-18T04:56:45.443Z,5.7
2023-04-18T04:57:58.563Z,5.7
2023-04-18T04:59:11.566Z,5.9
2023-04-18T05:00:24.463Z,5.9
2023-04-18T05:01:37.443Z,5.8
2023-04-18T05:02:50.567Z,5.8
2023-04-18T05:04:03.542Z,5.8
2023-04-18T05:05:16.418Z,5.9
2023-04-18T05:06:29.472Z,5.9
2023-04-18T05:07:42.440Z,5.9
2023-04-18T05:08:55.436Z,5.9
2023-04-18T05:10:08.490Z,5.9
2023-04-18T05:11:21.458Z,5.9
2023-04-18T05:12:34.514Z,5.9
2023-04-18T05:13:47.415Z,6.1
2023-04-18T05:15:00.475Z,6.1
2023-04-18T05:16:13.585Z,6.1
2023-04-18T05:17:26.501Z,6.1
2023-04-18T05:18:39.413Z,6.1
2023-04-18T05:19:52.629Z,6.1
2023-04-18T05:21:05.455Z,6.1
2023-04-18T05:22:18.473Z,6.1
2023-04-18T05:23:31.152Z,6.1
2023-04-18T05:24:44.505Z,6.1
2023-04-18T05:25:57.602Z,6.1
2023-04-18T05:27:10.593Z,6.1
2023-04-18T05:28:23.450Z,6.1
2023-04-18T05:29:36.431Z,6.1
2023-04-18T05:30:49.449Z,6.2
2023-04-18T05:32:02.439Z,6.2
2023-04-18T05:33:15.447Z,6.2
2023-04-18T05:34:28.430Z,6.3
2023-04-18T05:35:41.462Z,6.3
2023-04-18T05:36:54.625Z,6.4
2023-04-18T05:38:07.448Z,6.5
2023-04-18T05:39:20.575Z,6.5
2023-04-18T05:40:33.500Z,6.6
2023-04-18T05:41:46.494Z,6.6
2023-04-18T05:42:59.500Z,6.7
2023-04-18T05:44:12.501Z,6.8
2023-04-18T05:45:25.485Z,6.8
2023-04-18T05:46:38.564Z,6.9
2023-04-18T05:47:51.593Z,6.8
2023-04-18T05:49:04.613Z,6.8
2023-04-18T05:50:17.478Z,7
2023-04-18T05:51:30.476Z,7
2023-04-18T05:52:43.492Z,7.2
2023-04-18T05:53:56.316Z,7.2
2023-04-18T05:55:09.504Z,7.2
2023-04-18T05:56:22.564Z,7.2
2023-04-18T05:57:35.482Z,7.4
2023-04-18T05:58:48.638Z,7.4
2023-04-18T06:00:01.634Z,7.6
2023-04-18T06:01:14.492Z,7.5
2023-04-18T06:02:27.665Z,7.6
2023-04-18T06:03:40.604Z,7.6
2023-04-18T06:04:53.691Z,7.8
2023-04-18T06:06:06.468Z,7.8
2023-04-18T06:07:19.347Z,7.9
2023-04-18T06:08:32.347Z,7.9
2023-04-18T06:09:45.374Z,8.1
2023-04-18T06:10:58.357Z,8.1
2023-04-18T06:12:11.384Z,8.2
2023-04-18T06:13:24.426Z,8.2
2023-04-18T06:14:37.419Z,8.2
2023-04-18T06:15:50.378Z,8.2
2023-04-18T06:17:03.318Z,8.2
2023-04-18T06:18:16.315Z,8.2
2023-04-18T06:19:29.455Z,8.3
2023-04-18T06:20:42.475Z,8.3
2023-04-18T06:21:55.339Z,8.3
2023-04-18T06:23:08.342Z,8.4
2023-04-18T06:24:21.342Z,8.4
2023-04-18T06:25:34.331Z,8.4
2023-04-18T06:26:47.547Z,8.6
2023-04-18T06:28:00.335Z,8.6
2023-04-18T06:29:13.348Z,8.5
2023-04-18T06:30:26.358Z,8.6
2023-04-18T06:31:39.364Z,8.7
2023-04-18T06:32:52.468Z,8.7
2023-04-18T06:34:05.335Z,8.7
2023-04-18T06:35:18.387Z,8.8
2023-04-18T06:36:31.348Z,8.8
2023-04-18T06:37:44.348Z,8.8
2023-04-18T06:38:57.341Z,8.8
2023-04-18T06:40:10.369Z,8.9
2023-04-18T06:41:23.348Z,9
2023-04-18T06:42:36.381Z,9
2023-04-18T06:44:02.524Z,9
2023-04-18T06:45:02.554Z,9
2023-04-18T06:46:15.502Z,9
2023-04-18T06:47:28.578Z,9
2023-04-18T06:48:41.451Z,8.9
2023-04-18T06:49:54.917Z,8.9
2023-04-18T06:51:07.358Z,8.9
2023-04-18T06:52:20.399Z,8.9
2023-04-18T06:53:34.061Z,8.9
2023-04-18T06:54:46.347Z,8.9
2023-04-18T06:55:59.354Z,8.9
2023-04-18T06:57:12.394Z,9
2023-04-18T06:58:25.374Z,9.1
2023-04-18T06:59:38.384Z,9
2023-04-18T07:00:51.416Z,8.9
2023-04-18T07:02:04.386Z,8.9
2023-04-18T07:03:17.595Z,8.9
2023-04-18T07:04:30.524Z,8.9
2023-04-18T07:05:43.446Z,8.9
2023-04-18T07:06:56.348Z,8.9
2023-04-18T07:08:09.353Z,9
2023-04-18T07:09:22.462Z,8.8
2023-04-18T07:10:35.373Z,8.8
2023-04-18T07:11:48.390Z,8.8
2023-04-18T07:13:01.717Z,8.7
2023-04-18T07:14:14.691Z,8.7
2023-04-18T07:15:27.363Z,8.5
2023-04-18T07:16:40.465Z,8.6
2023-04-18T07:17:53.496Z,8.6
2023-04-18T07:19:06.555Z,8.6
2023-04-18T07:20:19.398Z,8.6
2023-04-18T07:21:32.380Z,8.6
2023-04-18T07:22:45.416Z,8.6
2023-04-18T07:23:58.383Z,8.6
2023-04-18T07:25:11.367Z,8.5
2023-04-18T07:26:24.371Z,8.5
2023-04-18T07:27:37.351Z,8.5
2023-04-18T07:28:50.370Z,8.5
2023-04-18T07:30:03.339Z,8.6
2023-04-18T07:31:16.536Z,8.7
2023-04-18T07:32:29.432Z,8.7
2023-04-18T07:33:42.360Z,8.7
2023-04-18T07:34:55.341Z,8.7
2023-04-18T07:36:08.497Z,8.7
2023-04-18T07:37:21.351Z,8.7
2023-04-18T07:38:34.377Z,8.7
2023-04-18T07:39:47.805Z,8.8
2023-04-18T07:41:00.400Z,8.8
2023-04-18T07:42:13.396Z,8.7
2023-04-18T07:43:26.338Z,8.7
2023-04-18T07:44:39.403Z,8.8
2023-04-18T07:45:52.390Z,8.8
2023-04-18T07:47:05.372Z,8.8
2023-04-18T07:48:18.443Z,8.8
2023-04-18T07:49:31.550Z,8.8
2023-04-18T07:50:44.348Z,8.8
2023-04-18T07:51:57.413Z,8.8
2023-04-18T07:53:10.352Z,8.8
2023-04-18T07:54:23.409Z,8.8
2023-04-18T07:55:36.545Z,8.8
2023-04-18T07:56:49.401Z,8.8
2023-04-18T07:58:02.429Z,8.8
2023-04-18T07:59:15.822Z,8.8
2023-04-18T08:00:28.382Z,8.8
2023-04-18T08:01:41.366Z,8.8
2023-04-18T08:02:54.482Z,8.8
2023-04-18T08:04:07.437Z,8.8
2023-04-18T08:05:20.482Z,8.9
2023-04-18T08:06:33.347Z,9
2023-04-18T08:07:46.431Z,9
2023-04-18T08:08:59.453Z,8.9
2023-04-18T08:10:12.620Z,8.9
2023-04-18T08:11:25.403Z,8.9
2023-04-18T08:12:38.394Z,8.9
2023-04-18T08:13:51.386Z,8.9
2023-04-18T08:15:04.361Z,8.9
2023-04-18T08:16:17.686Z,8.9
2023-04-18T08:17:30.363Z,8.9
2023-04-18T08:18:43.387Z,9.1
2023-04-18T08:19:56.075Z,9.1
2023-04-18T08:21:09.371Z,9.1
2023-04-18T08:22:22.445Z,9.1
2023-04-18T08:23:35.500Z,9.1
2023-04-18T08:25:01.338Z,9.1
2023-04-18T08:26:01.408Z,9.1
2023-04-18T08:27:14.359Z,9.1
2023-04-18T08:28:27.385Z,9.1
2023-04-18T08:29:40.481Z,9.1
2023-04-18T08:30:53.389Z,9.1
2023-04-18T08:32:06.448Z,9.1
2023-04-18T08:33:19.395Z,9.2
2023-04-18T08:34:32.400Z,9.2
2023-04-18T08:35:45.410Z,9.2
2023-04-18T08:36:58.409Z,9.2
2023-04-18T08:38:11.434Z,9.2
2023-04-18T08:39:25.356Z,9.2
2023-04-18T08:40:37.406Z,9.2
2023-04-18T08:41:50.354Z,9.2
2023-04-18T08:43:03.510Z,9.2
2023-04-18T08:44:16.386Z,9.2
2023-04-18T08:45:29.414Z,9.4
2023-04-18T08:46:42.380Z,9.3
2023-04-18T08:47:55.419Z,9.4
2023-04-18T08:49:09.635Z,9.3
2023-04-18T08:50:21.548Z,9.2
2023-04-18T08:51:34.377Z,9.2
2023-04-18T08:52:47.378Z,9.2
2023-04-18T08:54:00.368Z,9.2
2023-04-18T08:55:13.407Z,9.2
2023-04-18T08:56:26.451Z,9.2
2023-04-18T08:57:39.396Z,9.2
2023-04-18T08:58:52.464Z,9.2
2023-04-18T09:00:05.436Z,9.2
2023-04-18T09:01:18.461Z,9.2
2023-04-18T09:02:31.400Z,9.2
2023-04-18T09:03:44.407Z,9.3
2023-04-18T09:04:57.405Z,9.3
2023-04-18T09:06:10.399Z,9.3
2023-04-18T09:07:23.399Z,9.4
2023-04-18T09:08:36.395Z,9.5
2023-04-18T09:09:49.417Z,9.5
2023-04-18T09:11:02.380Z,9.5
2023-04-18T09:12:15.584Z,9.7
2023-04-18T09:13:28.378Z,9.7
2023-04-18T09:14:41.585Z,9.6
2023-04-18T09:15:54.397Z,9.7
2023-04-18T09:17:07.452Z,9.7
2023-04-18T09:18:20.388Z,9.7
2023-04-18T09:19:33.406Z,9.6
2023-04-18T09:20:46.562Z,9.6
2023-04-18T09:21:59.499Z,9.6
2023-04-18T09:23:12.491Z,9.6
2023-04-18T09:24:25.382Z,9.6
2023-04-18T09:25:41.622Z,9.6
2023-04-18T09:26:51.422Z,9.6
2023-04-18T09:28:04.401Z,9.6
2023-04-18T09:29:17.464Z,9.6
2023-04-18T09:30:30.591Z,9.7
2023-04-18T09:31:43.497Z,9.7
2023-04-18T09:32:56.422Z,9.7
2023-04-18T09:34:09.449Z,9.7
2023-04-18T09:35:22.403Z,9.9
2023-04-18T09:36:35.429Z,10
2023-04-18T09:37:48.470Z,10
2023-04-18T09:39:01.414Z,10
2023-04-18T09:40:14.396Z,10
2023-04-18T09:41:27.532Z,10
2023-04-18T09:42:40.487Z,10.2
2023-04-18T09:43:53.492Z,10.2
2023-04-18T09:45:06.521Z,10.2
2023-04-18T09:46:19.488Z,10.3
2023-04-18T09:47:32.443Z,10.3
2023-04-18T09:48:45.443Z,10.4
2023-04-18T09:49:58.439Z,10.4
2023-04-18T09:51:11.469Z,10.4
2023-04-18T09:52:24.386Z,10.6
2023-04-18T09:53:37.412Z,10.6
2023-04-18T09:54:50.375Z,10.6
2023-04-18T09:56:03.423Z,10.6
2023-04-18T09:57:16.129Z,10.7
2023-04-18T09:58:29.415Z,10.7
2023-04-18T09:59:42.401Z,10.8
2023-04-18T10:00:55.579Z,10.8
2023-04-18T10:02:09.079Z,10.7
2023-04-18T10:03:21.579Z,10.7
2023-04-18T10:04:34.504Z,10.7
2023-04-18T10:05:47.600Z,10.8
2023-04-18T10:07:00.451Z,10.9
2023-04-18T10:08:13.405Z,11
2023-04-18T10:09:26.436Z,11
2023-04-18T10:10:39.420Z,10.8
2023-04-18T10:11:52.574Z,10.7
2023-04-18T10:13:05.415Z,10.7
2023-04-18T10:14:18.690Z,10.7
2023-04-18T10:15:31.408Z,10.7
2023-04-18T10:16:44.483Z,10.7
2023-04-18T10:18:04.067Z,10.7
2023-04-18T10:19:10.392Z,10.7
2023-04-18T10:20:23.473Z,10.7
2023-04-18T10:21:36.460Z,10.8
2023-04-18T10:22:49.428Z,10.8
2023-04-18T10:24:02.455Z,10.8
2023-04-18T10:25:15.547Z,10.8
2023-04-18T10:26:28.454Z,11
2023-04-18T10:27:41.410Z,11
2023-04-18T10:28:54.547Z,10.8
2023-04-18T10:30:09.043Z,11
2023-04-18T10:31:20.384Z,11
2023-04-18T10:32:33.406Z,11
2023-04-18T10:33:49.718Z,10.9
2023-04-18T10:34:59.438Z,11.1
2023-04-18T10:36:12.580Z,10.9
2023-04-18T10:37:25.421Z,10.9
2023-04-18T10:38:38.549Z,11
2023-04-18T10:39:51.615Z,11.1
2023-04-18T10:41:04.586Z,11.1
2023-04-18T10:42:17.456Z,11.1
2023-04-18T10:43:30.457Z,11.1
2023-04-18T10:44:43.393Z,11.1
2023-04-18T10:45:56.605Z,11.2
2023-04-18T10:47:09.367Z,11.2
2023-04-18T10:48:22.404Z,11.3
2023-04-18T10:49:35.390Z,11.3
2023-04-18T10:50:48.444Z,11.3
2023-04-18T10:52:01.610Z,11.4
2023-04-18T10:53:14.413Z,11.5
2023-04-18T10:54:27.510Z,11.5
2023-04-18T10:55:40.413Z,11.6
2023-04-18T10:56:53.404Z,11.6
2023-04-18T10:58:06.436Z,11.5
2023-04-18T10:59:19.472Z,11.5
2023-04-18T11:00:32.621Z,11.5
2023-04-18T11:01:45.436Z,11.4
2023-04-18T11:02:58.486Z,11.3
2023-04-18T11:04:11.532Z,11.4
2023-04-18T11:05:24.452Z,11.5
2023-04-18T11:06:37.421Z,11.5
2023-04-18T11:07:50.440Z,11.5
2023-04-18T11:09:03.423Z,11.5
2023-04-18T11:10:16.560Z,11.6
2023-04-18T11:11:29.426Z,11.6
2023-04-18T11:12:42.489Z,11.6
2023-04-18T11:13:55.500Z,11.5
2023-04-18T11:15:08.440Z,11.6
2023-04-18T11:16:21.563Z,11.6
2023-04-18T11:17:34.574Z,11.6
2023-04-18T11:18:47.647Z,11.6
2023-04-18T11:20:00.431Z,11.6
2023-04-18T11:21:13.397Z,11.6
2023-04-18T11:22:26.430Z,11.6
2023-04-18T11:23:39.532Z,11.6
2023-04-18T11:24:52.442Z,11.6
2023-04-18T11:26:05.520Z,11.6
2023-04-18T11:27:18.771Z,11.7
2023-04-18T11:28:31.454Z,11.7
2023-04-18T11:29:44.582Z,11.7
2023-04-18T11:30:57.487Z,11.7
2023-04-18T11:32:10.457Z,11.7
2023-04-18T11:33:23.484Z,11.8
2023-04-18T11:34:36.569Z,11.9
2023-04-18T11:35:49.443Z,11.9
2023-04-18T11:37:02.425Z,11.9
2023-04-18T11:38:15.597Z,11.9
2023-04-18T11:39:28.435Z,11.9
2023-04-18T11:40:41.587Z,11.9
2023-04-18T11:41:54.465Z,11.9
2023-04-18T11:43:07.625Z,11.9
2023-04-18T11:44:20.430Z,11.9
2023-04-18T11:45:33.438Z,12.1
2023-04-18T11:46:46.457Z,12
2023-04-18T11:47:59.527Z,12.2
2023-04-18T11:49:12.652Z,12.2
2023-04-18T11:50:25.467Z,12.2
2023-04-18T11:51:38.612Z,12.3
2023-04-18T11:52:51.439Z,12.3
2023-04-18T11:54:04.507Z,12.3
2023-04-18T11:55:17.688Z,12.4
2023-04-18T11:56:30.542Z,12.4
2023-04-18T11:57:43.549Z,12.6
2023-04-18T11:58:56.482Z,12.6
2023-04-18T12:00:09.484Z,12.7
2023-04-18T12:01:22.468Z,12.7
2023-04-18T12:02:35.574Z,12.7
2023-04-18T12:03:49.187Z,12.8
2023-04-18T12:05:01.672Z,12.8
2023-04-18T12:06:14.462Z,12.8
2023-04-18T12:07:27.523Z,12.8
2023-04-18T12:08:40.459Z,12.8
2023-04-18T12:09:53.426Z,12.8
2023-04-18T12:11:06.453Z,12.8
2023-04-18T12:12:19.424Z,12.8
2023-04-18T12:13:32.454Z,12.8
2023-04-18T12:14:45.534Z,12.8
2023-04-18T12:15:58.278Z,12.8
2023-04-18T12:17:11.441Z,12.8
2023-04-18T12:18:24.425Z,12.8
2023-04-18T12:19:37.467Z,12.8
2023-04-18T12:20:50.646Z,12.7
2023-04-18T12:22:04.067Z,12.8
2023-04-18T12:23:16.427Z,12.8
2023-04-18T12:24:29.515Z,12.8
2023-04-18T12:25:42.545Z,12.8
2023-04-18T12:26:55.459Z,12.8
2023-04-18T12:28:08.231Z,13
2023-04-18T12:29:21.419Z,13
2023-04-18T12:30:36.961Z,13
2023-04-18T12:31:47.544Z,13
2023-04-18T12:33:00.487Z,13.1
2023-04-18T12:34:13.751Z,13.1
2023-04-18T12:35:26.436Z,13.1
2023-04-18T12:36:39.510Z,13.1
2023-04-18T12:37:52.454Z,13.1
2023-04-18T12:39:05.444Z,13.1
2023-04-18T12:40:18.493Z,13.1
2023-04-18T12:41:31.406Z,13.1
2023-04-18T12:42:44.458Z,13.1
2023-04-18T12:43:57.434Z,13.1
2023-04-18T12:45:10.425Z,13.1
2023-04-18T12:46:23.468Z,13.2
2023-04-18T12:47:36.437Z,13.2
2023-04-18T12:48:49.430Z,13.2
2023-04-18T12:50:02.474Z,13.2
2023-04-18T12:51:15.491Z,13.4
2023-04-18T12:52:28.419Z,13.3
2023-04-18T12:53:41.437Z,13.3
2023-04-18T12:54:54.421Z,13.4
2023-04-18T12:56:07.445Z,13.5
2023-04-18T12:57:20.423Z,13.5
2023-04-18T12:58:33.453Z,13.5
2023-04-18T12:59:46.445Z,13.7
2023-04-18T13:00:59.440Z,13.6
2023-04-18T13:02:12.599Z,13.6
2023-04-18T13:03:25.538Z,13.6
2023-04-18T13:04:38.614Z,13.7
2023-04-18T13:05:51.440Z,13.8
2023-04-18T13:07:04.422Z,13.8
2023-04-18T13:08:18.092Z,13.8
2023-04-18T13:09:30.408Z,13.8
2023-04-18T13:10:43.439Z,13.8
2023-04-18T13:11:56.428Z,13.8
2023-04-18T13:13:09.517Z,13.8
2023-04-18T13:14:22.508Z,13.7
2023-04-18T13:15:35.428Z,13.6
2023-04-18T13:16:48.478Z,13.6
2023-04-18T13:18:01.573Z,13.7
2023-04-18T13:19:14.671Z,13.5
2023-04-18T13:20:27.560Z,13.5
2023-04-18T13:21:40.398Z,13.5
2023-04-18T13:22:53.422Z,13.5
2023-04-18T13:24:06.496Z,13.5
2023-04-18T13:25:19.433Z,13.5
2023-04-18T13:26:32.431Z,13.5
2023-04-18T13:27:45.453Z,13.7
2023-04-18T13:28:58.437Z,13.6
2023-04-18T13:30:11.476Z,13.8
2023-04-18T13:31:24.351Z,13.8
2023-04-18T13:32:37.719Z,13.8
2023-04-18T13:33:50.448Z,13.9
2023-04-18T13:35:03.447Z,13.9
2023-04-18T13:36:16.449Z,13.9
2023-04-18T13:37:29.440Z,13.9
2023-04-18T13:38:42.433Z,13.9
2023-04-18T13:39:55.434Z,13.9
2023-04-18T13:41:12.553Z,13.9
2023-04-18T13:42:21.452Z,13.9
2023-04-18T13:43:34.465Z,13.9
2023-04-18T13:44:47.475Z,13.9
2023-04-18T13:46:00.532Z,13.9
2023-04-18T13:47:13.478Z,14
2023-04-18T13:48:26.124Z,14
2023-04-18T13:49:39.431Z,14
2023-04-18T13:50:52.416Z,14.1
2023-04-18T13:52:05.432Z,14.2
2023-04-18T13:53:18.533Z,14.3
2023-04-18T13:54:31.457Z,14.3
2023-04-18T13:55:44.151Z,14.3
2023-04-18T13:56:58.167Z,14.3
2023-04-18T13:58:10.430Z,14.3
2023-04-18T13:59:23.441Z,14.3
2023-04-18T14:00:36.461Z,14.3
2023-04-18T14:01:49.496Z,14.3
2023-04-18T14:03:02.622Z,14.2
2023-04-18T14:04:15.751Z,14.2
2023-04-18T14:05:28.420Z,14.2
2023-04-18T14:06:41.474Z,14.1
2023-04-18T14:07:54.413Z,14
2023-04-18T14:09:07.489Z,14
2023-04-18T14:10:20.451Z,14
2023-04-18T14:11:33.465Z,14
2023-04-18T14:12:46.437Z,13.9
2023-04-18T14:13:59.719Z,13.9
2023-04-18T14:15:12.644Z,13.9
2023-04-18T14:16:25.444Z,13.9
2023-04-18T14:17:38.564Z,13.8
2023-04-18T14:18:51.554Z,13.8
2023-04-18T14:20:04.621Z,13.8
2023-04-18T14:21:17.497Z,13.7
2023-04-18T14:22:30.480Z,13.6
2023-04-18T14:23:43.543Z,13.6
2023-04-18T14:24:56.537Z,13.6
2023-04-18T14:26:09.395Z,13.7
2023-04-18T14:27:22.449Z,13.6
2023-04-18T14:28:35.475Z,13.8
2023-04-18T14:29:48.471Z,13.8
2023-04-18T14:31:01.446Z,13.8
2023-04-18T14:32:14.478Z,13.8
2023-04-18T14:33:27.440Z,13.8
2023-04-18T14:34:40.653Z,13.8
2023-04-18T14:35:53.606Z,13.8
2023-04-18T14:37:06.547Z,13.8
2023-04-18T14:38:19.437Z,13.8
2023-04-18T14:39:32.483Z,13.8
2023-04-18T14:40:45.436Z,13.8
2023-04-18T14:41:58.464Z,13.8
2023-04-18T14:43:11.449Z,13.8
2023-04-18T14:44:24.446Z,13.8
2023-04-18T14:45:37.437Z,13.8
2023-04-18T14:46:50.469Z,13.8
2023-04-18T14:48:03.620Z,13.8
2023-04-18T14:49:16.665Z,13.8
2023-04-18T14:50:29.440Z,13.8
2023-04-18T14:51:42.470Z,13.8
2023-04-18T14:52:55.462Z,13.8
2023-04-18T14:54:08.455Z,13.8
2023-04-18T14:55:21.525Z,13.9
2023-04-18T14:56:34.478Z,13.9
2023-04-18T14:57:47.444Z,13.9
2023-04-18T14:59:00.488Z,13.9
2023-04-18T15:00:13.450Z,14.1
2023-04-18T15:01:26.635Z,14.1
2023-04-18T15:02:39.698Z,14.1
2023-04-18T15:03:52.497Z,14.1
2023-04-18T15:05:05.538Z,14.1
2023-04-18T15:06:18.659Z,14.1
2023-04-18T15:07:31.538Z,14.1
2023-04-18T15:08:44.564Z,14
2023-04-18T15:09:57.431Z,14.1
2023-04-18T15:11:10.429Z,14.1
2023-04-18T15:12:23.432Z,14
2023-04-18T15:13:36.394Z,14
2023-04-18T15:14:49.426Z,14
2023-04-18T15:16:02.467Z,14
2023-04-18T15:17:15.600Z,14
2023-04-18T15:18:28.468Z,14
2023-04-18T15:19:41.778Z,14
2023-04-18T15:20:54.445Z,14
2023-04-18T15:22:07.314Z,14
2023-04-18T15:23:20.466Z,14
2023-04-18T15:24:33.430Z,14
2023-04-18T15:25:46.390Z,14
2023-04-18T15:26:59.436Z,14
2023-04-18T15:28:12.553Z,14.1
2023-04-18T15:29:25.453Z,14.2
2023-04-18T15:30:38.560Z,14.2
2023-04-18T15:31:51.532Z,14.2
2023-04-18T15:33:04.517Z,14.3
2023-04-18T15:34:17.537Z,14.3
2023-04-18T15:35:30.505Z,14.3
2023-04-18T15:36:43.531Z,14.4
2023-04-18T15:37:56.567Z,14.4
2023-04-18T15:39:09.461Z,14.6
2023-04-18T15:40:22.449Z,14.6
2023-04-18T15:41:35.442Z,14.6
2023-04-18T15:42:48.425Z,14.6
2023-04-18T15:44:01.321Z,14.6
2023-04-18T15:45:14.422Z,14.4
2023-04-18T15:46:27.466Z,14.4
2023-04-18T15:47:40.454Z,14.6
2023-04-18T15:48:53.443Z,14.6
2023-04-18T15:50:06.462Z,14.6
2023-04-18T15:51:19.432Z,14.4
2023-04-18T15:52:32.508Z,14.4
2023-04-18T15:53:45.448Z,14.4
2023-04-18T15:54:58.504Z,14.4
2023-04-18T15:56:11.459Z,14.4
2023-04-18T15:57:24.527Z,14.4
2023-04-18T15:58:37.446Z,14.4
2023-04-18T15:59:50.392Z,14.3
2023-04-18T16:01:03.660Z,14.3
2023-04-18T16:02:16.477Z,14.3
2023-04-18T16:03:29.616Z,14.3
2023-04-18T16:04:42.523Z,14.3
2023-04-18T16:05:55.417Z,14.3
2023-04-18T16:07:08.417Z,14.2
2023-04-18T16:08:21.551Z,14.1
2023-04-18T16:09:34.457Z,14
2023-04-18T16:10:47.483Z,14
2023-04-18T16:12:00.467Z,14
2023-04-18T16:13:13.454Z,13.9
2023-04-18T16:14:26.472Z,13.9
2023-04-18T16:15:39.504Z,13.9
2023-04-18T16:16:52.488Z,13.8
2023-04-18T16:18:05.564Z,13.8
2023-04-18T16:19:18.444Z,13.8
2023-04-18T16:20:31.427Z,13.8
2023-04-18T16:21:44.452Z,13.6
2023-04-18T16:22:57.461Z,13.6
2023-04-18T16:24:10.427Z,13.7
2023-04-18T16:25:23.591Z,13.7
2023-04-18T16:26:36.457Z,13.5
2023-04-18T16:27:49.724Z,13.5
2023-04-18T16:29:02.470Z,13.5
2023-04-18T16:30:15.504Z,13.5
2023-04-18T16:31:28.500Z,13.5
2023-04-18T16:32:41.455Z,13.5
2023-04-18T16:33:54.637Z,13.5
2023-04-18T16:35:07.483Z,13.5
2023-04-18T16:36:20.338Z,13.5